Terminal Aerodrome Forecast
Issued by NWS

Home | Current Version | Previous Version | Graphics & Text | Print | Product List | Glossary On
Versions: 1 2 3 4 5 6 7 8 9 10 11 12 13 14 15
000
FTUS43 KICT 151100
TAFRSL
TAF
KRSL 151120Z 1512/1612 23006KT P6SM SKC
     FM151500 22012KT P6SM SKC
     FM151700 21016G25KT P6SM SKC
     FM152000 19022G32KT P6SM SCT250
     FM160100 17015G22KT P6SM SCT250
     FM160500 18018G25KT P6SM SCT250=

USA.gov is the U.S. government's official web portal to all federal, state and local government web resources and services.